Latest Weather Observations for Norseman Airport

IDW60801

Issued at 10:35 am WST Monday 24 November 2014 (issued every 30 minutes, with the page automatically refreshed every 10 minutes)

About weather observations | Map of weather stations | Latest weather observations for WA | Other Formats
Station Details ID: 012009 Name: NORSEMAN AERO Lat: -32.21 Lon: 121.75 Height: 262.5 m
Data from the previous 72 hours. | See also: Recent months at Norseman Airport
Date/Time
WST
Temp
°C
App
Temp
°C
Dew
Point
Rel
Hum
%
Delta-T
°C
Wind Press
QNH
hPa
Press
MSL
hPa
Rain
since 9 am
mm
Dir
 
Spd
km/h
Gust
km/h
Spd
kts
Gust
kts
24/10:30am 19.1 14.5 5.6 41 6.7 SSE 19 26 10 14 1022.4 1021.6 0.0
24/10:00am 18.3 14.2 6.2 45 6.0 SW 17 22 9 12 1022.6 1021.8 0.0
24/09:30am 17.9 15.8 6.7 48 5.6 E 7 13 4 7 1022.8 1022.0 0.0
24/09:00am 17.2 14.7 6.4 49 5.4 SE 9 19 5 10 1023.3 1022.4 0.0
24/08:30am 15.7 12.7 5.9 52 4.8 SE 11 20 6 11 1023.5 1022.6 0.0
24/08:00am 15.0 11.6 6.0 55 4.4 ESE 13 22 7 12 1023.6 1022.7 0.0
24/07:30am 14.3 11.0 6.6 60 3.8 ESE 13 19 7 10 1023.4 1022.5 0.0
24/07:00am 13.0 11.2 8.1 72 2.4 W 7 9 4 5 1023.3 1022.4 0.0
24/06:30am 10.7 10.1 7.6 81 1.5 CALM 0 0 0 0 1023.0 1022.2 0.0
24/06:00am 9.2 8.1 7.0 86 1.0 S 2 6 1 3 1022.5 1021.7 0.0
24/05:30am 7.7 6.9 6.3 91 0.6 CALM 0 0 0 0 1022.1 1021.3 0.0
24/05:00am 6.2 5.1 5.2 93 0.4 CALM 0 0 0 0 1021.9 1021.0 0.0
24/04:30am 6.2 3.9 4.8 91 0.6 S 6 7 3 4 1021.5 1020.6 0.0
24/04:00am 6.7 5.6 5.3 91 0.6 CALM 0 0 0 0 1021.2 1020.3 0.0
24/03:30am 6.8 4.6 5.1 89 0.8 SSE 6 6 3 3 1021.0 1020.1 0.0
24/03:00am 7.4 5.2 5.5 88 0.9 SSE 6 7 3 4 1020.9 1020.0 0.0
24/02:30am 8.0 7.0 5.8 86 1.0 CALM 0 0 0 0 1020.8 1019.9 0.0
24/02:00am 9.1 7.2 6.5 84 1.2 S 6 9 3 5 1020.7 1019.8 0.0
24/01:30am 9.4 7.3 6.5 82 1.4 S 7 9 4 5 1020.4 1019.5 0.0
24/01:00am 10.0 7.5 6.7 80 1.6 S 9 9 5 5 1020.4 1019.5 0.0
24/12:30am 10.8 8.7 6.7 76 2.0 S 7 9 4 5 1020.4 1019.5 0.0
24/12:00am 11.4 9.4 6.9 74 2.2 S 7 11 4 6 1020.5 1019.6 0.0
 
Date/Time
WST
Temp
°C
App
Temp
°C
Dew
Point
Rel
Hum
%
Delta-T
°C
Wind Press
QNH
hPa
Press
MSL
hPa
Rain
since 9 am
mm
Dir
 
Spd
km/h
Gust
km/h
Spd
kts
Gust
kts
23/11:30pm 12.1 8.9 7.0 71 2.5 S 13 19 7 10 1020.6 1019.7 0.0
23/11:00pm 12.4 9.2 6.9 69 2.7 S 13 17 7 9 1020.3 1019.4 0.0
23/10:30pm 13.1 9.5 6.7 65 3.1 S 15 22 8 12 1020.3 1019.4 0.0
23/10:00pm 13.3 9.4 6.9 65 3.1 S 17 24 9 13 1020.0 1019.1 0.0
23/09:30pm 13.8 8.5 6.7 62 3.5 S 24 35 13 19 1019.8 1018.9 0.0
23/09:00pm 14.3 9.4 7.1 62 3.6 S 22 37 12 20 1019.4 1018.5 0.0
23/08:30pm 14.9 9.9 8.2 64 3.4 S 24 41 13 22 1018.7 1017.9 0.0
23/08:00pm 15.6 11.6 8.4 62 3.7 S 19 28 10 15 1018.0 1017.1 0.0
23/07:30pm 16.3 10.6 8.5 60 4.0 S 28 44 15 24 1017.4 1016.5 0.0
23/07:00pm 17.4 12.1 8.5 56 4.6 S 26 39 14 21 1016.6 1015.7 0.0
23/06:35pm 18.5 12.8 8.5 52 5.2 S 28 46 15 25 1015.9 1015.0 0.0
23/06:30pm 18.8 13.5 8.5 51 5.4 S 26 37 14 20 1015.7 1014.8 0.0
23/06:00pm 20.0 13.0 8.4 47 6.1 SSE 35 50 19 27 1014.6 1013.7 0.0
23/05:36pm 21.5 15.1 8.4 43 7.0 SSE 32 50 17 27 1014.0 1013.1 0.0
23/05:30pm 22.2 16.1 8.3 41 7.4 S 30 46 16 25 1013.7 1012.8 0.0
23/05:26pm 23.4 17.4 7.1 35 8.6 S 28 46 15 25 1013.6 1012.7 0.0
23/05:00pm 25.8 20.5 4.9 26 10.7 SW 22 32 12 17 1013.0 1012.1 0.0
23/04:30pm 26.1 19.7 5.1 26 10.8 SSW 28 37 15 20 1012.7 1011.8 0.0
23/04:00pm 26.2 19.7 4.6 25 11.0 SW 28 43 15 23 1012.5 1011.6 0.0
23/03:30pm 26.6 20.8 4.4 24 11.3 SW 24 32 13 17 1012.3 1011.4 0.0
23/03:00pm 26.4 20.7 4.8 25 11.1 WSW 24 44 13 24 1012.3 1011.4 0.0
23/02:30pm 26.6 20.3 5.5 26 11.0 WSW 28 39 15 21 1012.5 1011.6 0.0
23/02:00pm 25.4 19.5 5.6 28 10.3 W 26 44 14 24 1012.7 1011.8 0.0
23/01:30pm 25.9 20.4 6.0 28 10.4 SW 24 35 13 19 1012.8 1011.9 0.0
23/01:00pm 25.0 19.6 6.2 30 9.8 W 24 35 13 19 1013.1 1012.2 0.0
23/12:30pm 23.9 18.8 5.8 31 9.3 SW 22 33 12 18 1013.3 1012.4 0.0
23/12:00pm 24.2 19.0 7.4 34 8.9 WSW 24 37 13 20 1013.5 1012.6 0.0
23/11:30am 23.2 18.3 6.9 35 8.5 WSW 22 39 12 21 1013.7 1012.8 0.0
23/11:00am 22.1 18.4 7.9 40 7.5 WSW 17 30 9 16 1014.0 1013.1 0.0
23/10:30am 22.2 19.1 8.7 42 7.3 WSW 15 17 8 9 1014.1 1013.2 0.0
23/10:00am 20.7 16.4 8.0 44 6.7 WNW 20 24 11 13 1014.3 1013.4 0.0
23/09:30am 20.5 17.8 9.1 48 6.1 WSW 13 24 7 13 1014.5 1013.6 0.0
23/09:00am 18.7 17.8 10.5 59 4.5 WSW 6 11 3 6 1014.7 1013.8 0.0
23/08:30am 17.7 16.4 11.3 66 3.5 NNW 9 13 5 7 1014.8 1013.9 0.0
23/08:00am 16.5 15.7 11.0 70 3.0 S 6 9 3 5 1014.8 1013.9 0.0
23/07:30am 16.0 14.9 11.8 76 2.3 SSW 9 17 5 9 1014.8 1013.9 0.0
23/07:00am 15.3 13.7 11.7 79 2.0 S 11 17 6 9 1014.6 1013.7 0.0
23/06:30am 14.6 12.5 11.2 80 1.8 S 13 17 7 9 1014.3 1013.4 0.0
23/06:00am 14.6 12.9 11.2 80 1.8 SSE 11 15 6 8 1013.9 1013.0 0.0
23/05:30am 14.2 13.3 11.2 82 1.6 S 7 9 4 5 1013.6 1012.7 0.0
23/05:00am 13.9 11.4 11.1 83 1.5 S 15 20 8 11 1013.3 1012.4 0.0
23/04:30am 13.1 11.3 11.0 87 1.1 S 11 17 6 9 1012.8 1011.9 0.0
23/04:00am 12.0 10.6 10.9 93 0.6 SSW 9 13 5 7 1012.4 1011.5 0.0
23/03:30am 11.5 9.8 9.9 90 0.8 SW 9 13 5 7 1011.7 1010.7 0.0
23/03:00am 12.3 11.0 9.9 85 1.2 SSW 7 11 4 6 1011.3 1010.3 0.0
23/02:30am 12.9 10.5 10.1 83 1.5 S 13 17 7 9 1011.4 1010.4 0.0
23/02:00am 13.0 11.5 10.7 86 1.2 S 9 13 5 7 1011.0 1010.1 0.0
23/01:30am 13.1 11.2 10.6 85 1.3 SW 11 15 6 8 1011.2 1010.2 0.0
23/01:00am 14.8 13.7 10.8 77 2.1 S 7 9 4 5 1011.0 1010.1 0.0
23/12:30am 15.1 14.5 10.5 74 2.5 S 4 7 2 4 1011.0 1010.1 0.0
23/12:00am 15.3 14.4 10.5 73 2.6 S 6 13 3 7 1011.2 1010.2 0.0
 
Date/Time
WST
Temp
°C
App
Temp
°C
Dew
Point
Rel
Hum
%
Delta-T
°C
Wind Press
QNH
hPa
Press
MSL
hPa
Rain
since 9 am
mm
Dir
 
Spd
km/h
Gust
km/h
Spd
kts
Gust
kts
22/11:30pm 15.7 14.2 10.5 71 2.8 S 9 13 5 7 1011.4 1010.4 0.0
22/11:00pm 16.5 15.1 10.8 69 3.1 S 9 13 5 7 1011.6 1010.6 0.0
22/10:30pm 17.0 15.3 11.3 69 3.1 SSW 11 17 6 9 1011.7 1010.7 0.0
22/10:00pm 17.9 16.7 11.7 67 3.4 SSE 9 15 5 8 1011.6 1010.6 0.0
22/09:30pm 18.5 17.4 11.8 65 3.7 S 9 17 5 9 1011.6 1010.6 0.0
22/09:00pm 19.2 16.5 11.7 62 4.2 S 17 22 9 12 1011.4 1010.4 0.0
22/08:30pm 20.0 16.9 11.5 58 4.7 SSE 19 24 10 13 1011.0 1010.1 0.0
22/08:00pm 19.9 19.6 8.6 48 6.0 CALM 0 6 0 3 1010.3 1009.4 0.0
22/07:30pm 21.9 19.5 7.0 38 7.7 S 9 11 5 6 1010.1 1009.2 0.0
22/07:00pm 22.9 20.1 7.0 36 8.3 S 11 15 6 8 1009.8 1008.9 0.0
22/06:30pm 24.5 20.5 6.7 32 9.3 SSW 17 24 9 13 1009.6 1008.7 0.0
22/06:00pm 25.8 22.0 5.9 28 10.4 SW 15 20 8 11 1009.3 1008.4 0.0
22/05:30pm 26.9 22.0 6.9 28 10.7 W 22 30 12 16 1008.9 1008.0 0.0
22/05:00pm 27.2 23.9 6.6 27 11.0 S 13 20 7 11 1008.6 1007.6 0.0
22/04:30pm 26.6 22.9 6.1 27 10.8 SW 15 19 8 10 1008.7 1007.8 0.0
22/04:00pm 27.5 25.1 6.8 27 11.1 WSW 9 17 5 9 1008.6 1007.6 0.0
22/03:30pm 27.3 23.3 6.7 27 11.0 SW 17 28 9 15 1008.7 1007.8 0.0
22/03:00pm 27.1 24.3 7.0 28 10.8 SW 11 22 6 12 1008.8 1007.9 0.0
22/02:30pm 26.2 23.3 6.3 28 10.5 NW 11 19 6 10 1009.1 1008.2 0.0
22/02:00pm 25.4 22.4 7.5 32 9.6 SE 13 20 7 11 1009.4 1008.5 0.0
22/01:30pm 26.1 24.7 9.4 35 9.3 NNW 7 15 4 8 1009.7 1008.8 0.0
22/01:00pm 26.0 24.2 9.4 35 9.2 NNE 9 17 5 9 1009.9 1009.0 0.0
22/12:30pm 24.6 22.4 9.3 38 8.4 WNW 11 19 6 10 1010.2 1009.3 0.0
22/12:00pm 23.9 22.2 9.9 41 7.8 NNW 9 15 5 8 1010.6 1009.7 0.0
22/11:30am 23.1 21.4 9.8 43 7.3 NW 9 19 5 10 1011.0 1010.1 0.0
22/11:00am 22.9 22.1 11.0 47 6.7 ESE 6 11 3 6 1011.4 1010.4 0.0
22/10:30am 21.9 20.6 10.1 47 6.5 NE 7 11 4 6 1011.8 1010.8 0.0
22/10:00am 20.9 19.7 11.5 55 5.3 NNW 9 15 5 8 1012.0 1011.1 0.0
22/09:30am 20.5 19.3 11.7 57 4.9 W 9 15 5 8 1012.2 1011.3 0.0
22/09:00am 20.0 19.5 12.7 63 4.2 WNW 7 13 4 7 1012.4 1011.5 0.0
22/08:30am 19.0 19.5 12.7 67 3.6 S 2 7 1 4 1012.5 1011.6 0.0
22/08:00am 18.3 18.4 12.7 70 3.2 SW 4 9 2 5 1012.6 1011.7 0.0
22/07:30am 17.3 16.7 12.2 72 2.8 ESE 7 13 4 7 1012.6 1011.7 0.0
22/07:00am 16.5 15.9 12.3 76 2.3 E 7 9 4 5 1012.4 1011.5 0.0
22/06:30am 15.9 14.8 12.1 78 2.1 ESE 9 13 5 7 1012.3 1011.4 0.0
22/06:00am 15.5 14.9 12.3 81 1.8 ESE 7 15 4 8 1012.0 1011.1 0.0
22/05:30am 14.7 14.2 12.2 85 1.4 ESE 6 9 3 5 1011.7 1010.7 0.0
22/05:00am 13.9 13.9 12.5 91 0.8 SSW 4 7 2 4 1011.6 1010.6 0.0
22/04:30am 13.7 14.1 12.4 92 0.7 SSE 2 7 1 4 1011.3 1010.3 0.0
22/04:00am 13.4 12.9 12.1 92 0.7 S 6 7 3 4 1010.8 1009.9 0.0
22/03:30am 13.3 12.3 12.2 93 0.6 SSW 9 13 5 7 1010.5 1009.6 0.0
22/03:00am 13.5 12.5 12.2 92 0.7 S 9 11 5 6 1010.3 1009.4 0.0
22/02:30am 13.7 12.6 12.1 90 0.9 S 9 13 5 7 1009.9 1009.0 0.0
22/02:00am 14.4 13.4 12.3 87 1.2 S 9 13 5 7 1010.1 1009.2 0.0
22/01:30am 14.7 13.7 12.2 85 1.4 S 9 11 5 6 1009.8 1008.9 0.0
22/01:00am 15.4 14.0 12.3 82 1.7 SSW 11 13 6 7 1009.8 1008.9 0.0
22/12:30am 16.0 14.3 12.4 79 2.0 S 13 20 7 11 1009.6 1008.7 0.0
22/12:00am 16.3 14.9 12.3 77 2.2 S 11 17 6 9 1009.8 1008.9 0.0
 
Date/Time
WST
Temp
°C
App
Temp
°C
Dew
Point
Rel
Hum
%
Delta-T
°C
Wind Press
QNH
hPa
Press
MSL
hPa
Rain
since 9 am
mm
Dir
 
Spd
km/h
Gust
km/h
Spd
kts
Gust
kts
21/11:30pm 16.9 15.5 12.2 74 2.6 S 11 15 6 8 1009.5 1008.6 0.0
21/11:00pm 17.9 16.2 12.4 70 3.1 S 13 17 7 9 1009.5 1008.6 0.0
21/10:30pm 18.7 17.3 12.2 66 3.7 S 11 17 6 9 1009.4 1008.5 0.0
21/10:00pm 19.8 17.4 12.6 63 4.1 S 17 24 9 13 1009.3 1008.4 0.0
21/09:30pm 21.0 19.7 11.3 54 5.4 S 9 13 5 7 1009.2 1008.3 0.0
21/09:00pm 19.9 19.0 10.6 55 5.1 SW 6 9 3 5 1008.9 1008.0 0.0
21/08:30pm 21.0 20.2 11.1 53 5.5 W 6 7 3 4 1009.0 1008.1 0.0
21/08:00pm 21.2 20.0 10.4 50 6.0 WSW 7 9 4 5 1008.9 1008.0 0.0
21/07:30pm 21.4 19.7 9.9 48 6.3 WSW 9 11 5 6 1008.7 1007.8 0.0
21/07:00pm 22.6 20.2 11.4 49 6.3 WSW 15 19 8 10 1008.5 1007.5 0.0
21/06:30pm 24.6 20.3 7.7 34 9.0 WSW 20 26 11 14 1008.1 1007.1 0.0
21/06:00pm 26.0 21.3 7.6 31 9.9 W 22 30 12 16 1007.9 1006.9 0.0
21/05:30pm 26.4 21.0 7.9 31 10.0 WSW 26 35 14 19 1007.6 1006.6 0.0
21/05:00pm 26.9 21.7 7.4 29 10.5 WSW 24 33 13 18 1007.4 1006.4 0.0
21/04:30pm 27.2 21.3 9.1 32 10.1 SW 30 35 16 19 1007.3 1006.3 0.0
21/04:00pm 27.6 21.4 9.4 32 10.2 W 32 54 17 29 1007.4 1006.4 0.0
21/03:55pm 27.8 21.9 9.1 31 10.4 W 30 54 16 29 1007.2 1006.2 0.0
21/03:30pm 27.2 21.8 9.5 33 9.9 W 28 44 15 24 1007.2 1006.2 0.0
21/03:00pm 26.8 21.9 10.1 35 9.4 W 26 43 14 23 1007.2 1006.2 0.0
21/02:41pm 26.2 20.4 9.5 35 9.3 WSW 30 48 16 26 1007.4 1006.4 0.0
21/02:30pm 27.8 24.1 10.1 33 10.0 SW 20 35 11 19 1007.4 1006.4 0.0
21/02:00pm 26.9 22.5 8.8 32 10.0 WSW 22 30 12 16 1007.6 1006.6 0.0
21/01:30pm 27.4 20.9 10.2 34 9.7 WSW 35 43 19 23 1007.8 1006.8 0.0
21/01:00pm 26.2 20.7 9.1 34 9.5 W 28 46 15 25 1008.2 1007.2 0.0
21/12:58pm 26.7 21.5 10.4 36 9.2 W 28 46 15 25 1008.2 1007.2 0.0
21/12:30pm 25.6 20.2 9.4 36 9.0 WSW 28 43 15 23 1008.4 1007.4 0.0
21/12:00pm 25.5 20.0 9.3 36 9.0 WSW 28 41 15 22 1008.7 1007.8 0.0
21/11:30am 25.0 20.9 10.1 39 8.3 WSW 22 32 12 17 1009.0 1008.1 0.0
21/11:00am 23.9 20.3 10.6 43 7.5 W 20 32 11 17 1009.4 1008.5 0.0

Other Formats:

Comma delimited format used in spreadsheet applications
http://www.bom.gov.au/fwo/IDW60801/IDW60801.95642.axf

JavaScript Object Notation format (JSON) in row-major order
http://www.bom.gov.au/fwo/IDW60801/IDW60801.95642.json